createdAt,value
2023-02-14T00:05:56.329Z,0
2023-02-14T00:12:19.420Z,0
2023-02-14T00:18:39.363Z,0
2023-02-14T00:25:02.409Z,0
2023-02-14T00:31:22.498Z,0
2023-02-14T00:37:45.459Z,0
2023-02-14T00:44:05.314Z,0
2023-02-14T00:50:28.448Z,0
2023-02-14T00:56:48.358Z,0
2023-02-14T01:03:11.370Z,0
2023-02-14T01:09:31.465Z,0
2023-02-14T01:15:54.495Z,0
2023-02-14T01:22:14.340Z,0
2023-02-14T01:28:37.367Z,0
2023-02-14T01:34:57.467Z,0
2023-02-14T01:41:20.489Z,0
2023-02-14T01:47:40.503Z,0
2023-02-14T01:54:03.396Z,0
2023-02-14T02:00:23.336Z,0
2023-02-14T02:06:46.423Z,0
2023-02-14T02:13:06.364Z,0
2023-02-14T02:19:29.483Z,0
2023-02-14T02:25:49.416Z,0
2023-02-14T02:32:12.664Z,0
2023-02-14T02:38:32.498Z,0
2023-02-14T02:44:55.517Z,0
2023-02-14T02:51:15.423Z,0
2023-02-14T02:57:38.553Z,0
2023-02-14T03:03:58.336Z,0
2023-02-14T03:10:21.564Z,0
2023-02-14T03:16:41.435Z,0
2023-02-14T03:23:04.509Z,0
2023-02-14T03:29:24.467Z,0
2023-02-14T03:35:47.650Z,0
2023-02-14T03:42:07.430Z,0
2023-02-14T03:48:30.405Z,0
2023-02-14T03:54:50.628Z,0
2023-02-14T04:01:13.620Z,0
2023-02-14T04:07:33.396Z,0
2023-02-14T04:30:57.662Z,0
2023-02-14T04:37:20.398Z,0
2023-02-14T04:43:40.366Z,0
2023-02-14T04:50:03.403Z,0
2023-02-14T04:56:23.462Z,0
2023-02-14T05:02:46.510Z,0
2023-02-14T05:09:06.495Z,0
2023-02-14T05:15:32.061Z,0
2023-02-14T05:21:50.321Z,0
2023-02-14T05:28:13.370Z,0
2023-02-14T05:34:33.400Z,0
2023-02-14T05:40:56.467Z,0
2023-02-14T05:47:16.526Z,0
2023-02-14T05:53:39.407Z,0
2023-02-14T05:59:59.396Z,0
2023-02-14T06:06:22.384Z,0
2023-02-14T06:12:42.455Z,1
2023-02-14T06:19:05.379Z,2
2023-02-14T06:25:25.508Z,4
2023-02-14T06:31:48.631Z,12
2023-02-14T06:38:08.397Z,31
2023-02-14T06:44:31.560Z,67
2023-02-14T06:50:51.441Z,118
2023-02-14T06:57:14.355Z,181
2023-02-14T07:03:34.554Z,251
2023-02-14T07:09:57.445Z,317
2023-02-14T07:16:17.413Z,388
2023-02-14T07:22:40.384Z,455
2023-02-14T07:29:00.522Z,519
2023-02-14T07:35:23.393Z,577
2023-02-14T07:41:43.458Z,638
2023-02-14T07:48:06.643Z,700
2023-02-14T07:54:26.507Z,754
2023-02-14T08:00:49.584Z,805
2023-02-14T08:07:09.393Z,853
2023-02-14T08:13:32.333Z,908
2023-02-14T08:19:52.506Z,962
2023-02-14T08:26:15.423Z,1014
2023-02-14T08:32:35.638Z,1065
2023-02-14T08:38:58.493Z,1135
2023-02-14T08:45:18.338Z,1226
2023-02-14T08:51:41.394Z,1347
2023-02-14T08:58:01.466Z,1440
2023-02-14T09:04:24.510Z,1503
2023-02-14T09:10:44.454Z,1576
2023-02-14T09:34:26.280Z,1973
2023-02-14T09:40:49.330Z,2124
2023-02-14T09:47:09.546Z,2274
2023-02-14T09:53:32.416Z,2398
2023-02-14T09:59:52.399Z,2535
2023-02-14T10:06:15.406Z,2647
2023-02-14T10:12:35.609Z,2740
2023-02-14T10:18:58.644Z,2821
2023-02-14T10:25:18.337Z,2880
2023-02-14T10:31:41.541Z,2984
2023-02-14T10:38:01.368Z,3093
2023-02-14T10:44:24.342Z,3192
2023-02-14T10:50:44.423Z,3317
2023-02-14T10:57:07.358Z,3444
2023-02-14T11:03:27.672Z,3567
2023-02-14T11:09:50.366Z,3688
2023-02-14T11:16:10.349Z,3798
2023-02-14T11:22:33.488Z,3922
2023-02-14T11:28:53.390Z,4042
2023-02-14T11:35:16.384Z,4186
2023-02-14T11:41:36.337Z,4287
2023-02-14T11:47:59.503Z,4371
2023-02-14T11:54:19.365Z,4432
2023-02-14T12:00:42.361Z,4566
2023-02-14T12:07:02.446Z,4701
2023-02-14T12:13:25.370Z,4811
2023-02-14T12:19:45.373Z,4884
2023-02-14T12:26:08.391Z,5007
2023-02-14T12:32:28.328Z,5073
2023-02-14T12:38:51.390Z,5216
2023-02-14T12:45:11.362Z,5316
2023-02-14T12:51:34.392Z,5368
2023-02-14T12:57:54.356Z,5454
2023-02-14T13:04:17.373Z,5500
2023-02-14T13:10:37.364Z,5461
2023-02-14T13:17:00.332Z,5359
2023-02-14T13:23:20.423Z,5279
2023-02-14T13:29:43.358Z,5270
2023-02-14T13:36:03.346Z,5114
2023-02-14T13:42:26.409Z,4978
2023-02-14T13:48:46.324Z,4823
2023-02-14T13:55:09.415Z,4591
2023-02-14T14:01:29.371Z,4355
2023-02-14T14:07:52.381Z,4185
2023-02-14T14:14:12.377Z,4018
2023-02-14T14:20:35.449Z,3851
2023-02-14T14:26:55.372Z,3735
2023-02-14T14:33:18.342Z,3638
2023-02-14T14:39:38.472Z,3537
2023-02-14T15:02:45.395Z,2835
2023-02-14T15:09:08.615Z,2565
2023-02-14T15:15:28.692Z,2184
2023-02-14T15:21:51.408Z,1849
2023-02-14T15:28:11.412Z,1543
2023-02-14T15:34:34.391Z,1297
2023-02-14T15:40:54.547Z,1051
2023-02-14T15:47:17.404Z,881
2023-02-14T15:53:37.370Z,792
2023-02-14T16:00:00.409Z,717
2023-02-14T16:06:20.380Z,636
2023-02-14T16:12:43.433Z,547
2023-02-14T16:19:03.401Z,452
2023-02-14T16:25:26.368Z,357
2023-02-14T16:32:01.116Z,267
2023-02-14T16:38:09.396Z,183
2023-02-14T16:44:29.603Z,115
2023-02-14T16:50:52.983Z,63
2023-02-14T16:57:13.642Z,29
2023-02-14T17:03:36.345Z,12
2023-02-14T17:09:56.386Z,4
2023-02-14T17:16:19.490Z,1
2023-02-14T17:22:39.380Z,0
2023-02-14T17:29:02.426Z,0
2023-02-14T17:35:22.393Z,0
2023-02-14T17:41:45.428Z,0
2023-02-14T17:48:05.439Z,0
2023-02-14T17:54:28.418Z,0
2023-02-14T18:00:48.513Z,0
2023-02-14T18:07:11.498Z,0
2023-02-14T18:13:31.519Z,0
2023-02-14T18:19:54.425Z,0
2023-02-14T18:26:14.329Z,0
2023-02-14T18:32:37.429Z,0
2023-02-14T18:38:57.399Z,0
2023-02-14T18:45:20.380Z,0
2023-02-14T18:51:40.442Z,0
2023-02-14T18:58:03.451Z,0
2023-02-14T19:04:23.452Z,0
2023-02-14T19:10:46.528Z,0
2023-02-14T19:17:06.421Z,0
2023-02-14T19:23:29.534Z,0
2023-02-14T19:29:49.467Z,0
2023-02-14T19:36:12.386Z,1
2023-02-14T19:42:32.436Z,1
2023-02-14T19:59:00.297Z,0
2023-02-14T20:05:20.374Z,0
2023-02-14T20:11:43.356Z,0
2023-02-14T20:18:03.484Z,0
2023-02-14T20:24:26.445Z,0
2023-02-14T20:30:46.564Z,0
2023-02-14T20:37:09.414Z,0
2023-02-14T20:43:29.467Z,0
2023-02-14T20:49:52.705Z,0
2023-02-14T20:56:12.399Z,0
2023-02-14T21:02:35.404Z,0
2023-02-14T21:08:55.357Z,0
2023-02-14T21:15:18.467Z,0
2023-02-14T21:21:38.499Z,0
2023-02-14T21:28:01.423Z,0
2023-02-14T21:34:21.471Z,0
2023-02-14T21:40:44.508Z,0
2023-02-14T21:47:04.494Z,0
2023-02-14T21:53:27.607Z,0
2023-02-14T21:59:47.389Z,0
2023-02-14T22:06:10.475Z,0
2023-02-14T22:12:30.381Z,0
2023-02-14T22:18:53.349Z,0
2023-02-14T22:25:13.466Z,0
2023-02-14T22:31:36.458Z,0
2023-02-14T22:37:56.338Z,0
2023-02-14T22:44:19.477Z,0
2023-02-14T22:50:39.463Z,0
2023-02-14T22:57:02.475Z,0
2023-02-14T23:21:16.346Z,0
2023-02-14T23:27:36.356Z,0
2023-02-14T23:33:59.372Z,0
2023-02-14T23:40:19.505Z,0
2023-02-14T23:46:42.531Z,0
2023-02-14T23:53:02.523Z,0
2023-02-14T23:59:25.442Z,0
